Time;durP1;ratioP1;P1;durP2;ratioP2;P2;SDS_P1;SDS_P2;PMS_P1;PMS_P2;Temp;Humidity;BMP_temperature;BMP_pressure;BME280_temperature;BME280_humidity;BME280_pressure;Samples;Min_cycle;Max_cycle;Signal;HPM_P1;HPM_P2
2023/09/04 00:01:18;;;;;;;8.43;7.63;;;13.70;90.70;;;;;;5065104;28;20154;-46
2023/09/04 00:03:48;;;;;;;9.80;8.80;;;13.70;90.90;;;;;;5046896;28;20034;-46
2023/09/04 00:06:15;;;;;;;9.23;8.32;;;13.70;90.90;;;;;;5012633;28;20034;-48
2023/09/04 00:08:42;;;;;;;10.05;9.05;;;13.80;91.10;;;;;;5045707;28;20021;-45
2023/09/04 00:11:12;;;;;;;10.43;9.27;;;13.80;91.10;;;;;;5069959;28;20027;-48
2023/09/04 00:13:39;;;;;;;10.05;9.15;;;13.80;91.10;;;;;;5060721;28;20028;-45
2023/09/04 00:16:05;;;;;;;8.65;7.57;;;13.80;91.20;;;;;;5064410;28;20028;-45
2023/09/04 00:21:55;;;;;;;9.15;8.25;;;13.70;91.20;;;;;;5030875;28;20110;-45
2023/09/04 00:24:24;;;;;;;9.68;8.73;;;13.80;91.30;;;;;;5030252;28;20758;-45
2023/09/04 00:26:50;;;;;;;8.63;7.72;;;13.70;91.30;;;;;;5030332;28;20064;-44
2023/09/04 00:29:16;;;;;;;9.10;7.28;;;13.70;91.30;;;;;;5031307;28;20521;-49
2023/09/04 00:31:43;;;;;;;7.97;7.18;;;13.70;91.40;;;;;;5055282;28;20335;-46
2023/09/04 00:34:08;;;;;;;9.45;8.55;;;13.70;91.10;;;;;;5041565;28;20030;-48
2023/09/04 00:36:35;;;;;;;8.20;7.40;;;13.60;91.20;;;;;;5047907;28;20039;-48
2023/09/04 00:39:02;;;;;;;9.90;9.00;;;13.60;91.30;;;;;;5033523;28;20047;-45
2023/09/04 00:41:29;;;;;;;9.27;8.38;;;13.60;91.20;;;;;;5050841;28;20053;-46
2023/09/04 00:43:56;;;;;;;9.05;7.15;;;13.60;91.30;;;;;;5035216;28;20053;-43
2023/09/04 00:46:23;;;;;;;8.80;8.05;;;13.60;91.20;;;;;;5058975;28;20446;-46
2023/09/04 00:48:49;;;;;;;8.77;7.88;;;13.60;90.90;;;;;;5050317;28;20056;-45
2023/09/04 00:51:22;;;;;;;7.78;6.88;;;13.50;91.00;;;;;;5035816;28;20068;-48
2023/09/04 00:53:49;;;;;;;13.63;8.77;;;13.50;90.90;;;;;;5023447;28;20017;-47
2023/09/04 00:56:16;;;;;;;8.32;7.53;;;13.50;90.80;;;;;;5046179;28;20029;-44
2023/09/04 00:58:42;;;;;;;8.70;7.90;;;13.40;90.90;;;;;;5053547;28;20063;-48
2023/09/04 01:01:08;;;;;;;8.95;8.05;;;13.40;90.80;;;;;;5050326;28;20053;-43
2023/09/04 01:03:35;;;;;;;9.00;8.10;;;13.40;91.10;;;;;;5051528;28;20382;-47
2023/09/04 01:06:02;;;;;;;9.32;8.35;;;13.40;91.10;;;;;;5069729;28;20038;-46
2023/09/04 01:08:30;;;;;;;8.25;7.35;;;13.40;90.90;;;;;;5039823;28;20428;-46
2023/09/04 01:11:14;;;;;;;8.43;7.18;;;13.40;91.00;;;;;;5031042;28;20036;-46
2023/09/04 01:13:59;;;;;;;8.25;7.45;;;13.40;90.90;;;;;;5031197;28;20037;-44
2023/09/04 01:16:26;;;;;;;7.53;6.82;;;13.30;90.80;;;;;;5057499;28;20035;-45
2023/09/04 01:18:53;;;;;;;8.63;7.40;;;13.30;90.70;;;;;;5039910;28;20035;-48
2023/09/04 01:21:21;;;;;;;8.50;7.57;;;13.30;90.70;;;;;;5037163;28;20036;-44
2023/09/04 01:23:48;;;;;;;8.95;6.72;;;13.30;90.80;;;;;;5052937;28;20033;-49
2023/09/04 01:26:39;;;;;;;8.68;7.78;;;13.30;90.90;;;;;;5065888;28;20032;-44
2023/09/04 01:29:22;;;;;;;7.80;7.05;;;13.30;91.00;;;;;;5030645;28;20071;-47
2023/09/04 01:31:57;;;;;;;7.65;6.85;;;13.40;91.10;;;;;;5056986;28;20032;-43
2023/09/04 01:34:34;;;;;;;8.48;7.68;;;13.40;91.20;;;;;;5029649;28;20486;-49
2023/09/04 01:37:05;;;;;;;12.02;8.70;;;13.40;91.20;;;;;;5056793;28;20056;-44
2023/09/04 01:39:31;;;;;;;9.85;8.90;;;13.40;91.30;;;;;;5029579;28;20025;-46
2023/09/04 01:41:57;;;;;;;8.73;7.88;;;13.30;91.30;;;;;;5032355;28;20315;-46
2023/09/04 01:44:25;;;;;;;10.25;7.32;;;13.30;91.40;;;;;;5010829;28;20025;-43
2023/09/04 01:46:52;;;;;;;10.52;8.60;;;13.30;91.40;;;;;;5061963;28;20024;-49
2023/09/04 01:49:19;;;;;;;7.90;7.10;;;13.30;91.50;;;;;;5041645;28;20722;-43
2023/09/04 01:51:46;;;;;;;9.00;7.68;;;13.30;91.50;;;;;;5028754;28;20025;-43
2023/09/04 01:54:12;;;;;;;7.63;6.82;;;13.20;91.50;;;;;;5029760;28;20489;-44
2023/09/04 01:56:40;;;;;;;8.13;7.30;;;13.20;91.40;;;;;;5062851;28;20586;-48
2023/09/04 01:59:06;;;;;;;8.95;7.80;;;13.20;91.40;;;;;;5059594;28;20028;-46
2023/09/04 02:01:33;;;;;;;9.32;7.55;;;13.20;91.30;;;;;;5062616;28;20028;-48
2023/09/04 02:03:58;;;;;;;7.85;6.95;;;13.10;91.20;;;;;;5048843;28;20043;-44
2023/09/04 02:06:27;;;;;;;9.23;6.50;;;13.10;91.20;;;;;;5069472;28;20037;-46
2023/09/04 02:08:54;;;;;;;8.30;6.57;;;13.00;91.10;;;;;;5040998;28;20052;-47
2023/09/04 02:11:21;;;;;;;8.18;7.38;;;12.90;91.10;;;;;;5046735;28;20115;-48
2023/09/04 02:13:50;;;;;;;7.60;6.78;;;13.00;91.20;;;;;;5063553;28;20582;-48
2023/09/04 02:16:16;;;;;;;7.53;6.72;;;12.90;91.20;;;;;;5060840;28;20033;-45
2023/09/04 02:18:46;;;;;;;8.38;7.57;;;12.90;91.10;;;;;;5050494;28;20044;-47
2023/09/04 02:21:14;;;;;;;;;;;12.90;91.50;;;;;;5049688;28;20044;-43
2023/09/04 02:23:41;;;;;;;7.57;6.82;;;12.90;91.50;;;;;;5046188;28;19916;-43
2023/09/04 02:26:10;;;;;;;7.93;6.43;;;13.00;91.60;;;;;;5030719;28;20453;-45
2023/09/04 02:28:36;;;;;;;8.23;7.35;;;13.00;91.70;;;;;;5062603;28;20025;-45
2023/09/04 02:31:08;;;;;;;7.18;6.43;;;13.00;91.60;;;;;;5053646;28;20033;-45
2023/09/04 02:33:35;;;;;;;7.68;6.15;;;13.00;91.50;;;;;;5030212;28;20147;-43
2023/09/04 02:36:05;;;;;;;7.95;7.03;;;12.90;91.50;;;;;;5047240;28;20461;-45
2023/09/04 02:38:32;;;;;;;6.32;5.72;;;13.00;91.50;;;;;;5049067;28;20040;-47
2023/09/04 02:41:00;;;;;;;7.18;6.18;;;12.90;91.40;;;;;;5046925;28;20029;-46
2023/09/04 02:43:26;;;;;;;7.50;6.80;;;12.90;91.30;;;;;;5041048;28;20033;-46
2023/09/04 02:45:57;;;;;;;7.43;5.60;;;12.90;91.20;;;;;;5044760;28;20461;-43
2023/09/04 02:48:25;;;;;;;7.85;6.07;;;12.90;91.00;;;;;;5066858;28;20372;-46
2023/09/04 02:50:58;;;;;;;8.10;6.05;;;12.90;90.90;;;;;;5032285;28;20105;-45
2023/09/04 02:53:28;;;;;;;7.15;6.43;;;12.90;90.90;;;;;;5014991;28;20478;-43
2023/09/04 02:55:55;;;;;;;7.15;6.45;;;12.80;90.70;;;;;;5053188;28;20165;-44
2023/09/04 02:58:22;;;;;;;7.03;6.32;;;12.80;90.80;;;;;;5044661;28;20072;-47
2023/09/04 03:00:49;;;;;;;8.02;6.13;;;12.70;90.80;;;;;;5058301;28;20508;-47
2023/09/04 03:03:16;;;;;;;8.60;7.28;;;12.70;90.90;;;;;;5032984;28;20616;-46
2023/09/04 03:05:43;;;;;;;8.05;6.32;;;12.70;90.90;;;;;;5015600;28;20025;-45
2023/09/04 03:08:13;;;;;;;6.82;6.13;;;12.70;91.10;;;;;;5032284;28;20018;-43
2023/09/04 03:10:39;;;;;;;7.20;6.55;;;12.70;91.00;;;;;;5036526;28;20029;-45
2023/09/04 03:13:06;;;;;;;7.28;6.57;;;12.70;91.00;;;;;;5032608;28;20112;-44
2023/09/04 03:15:33;;;;;;;7.63;6.93;;;12.60;90.90;;;;;;5052382;28;20037;-47
2023/09/04 03:18:01;;;;;;;8.27;7.45;;;12.60;90.90;;;;;;5036055;28;20411;-43
2023/09/04 03:20:29;;;;;;;9.05;8.15;;;12.60;91.10;;;;;;5054786;28;20036;-49
2023/09/04 03:22:55;;;;;;;7.65;6.00;;;12.60;91.30;;;;;;5030946;28;20079;-44
2023/09/04 03:25:21;;;;;;;6.93;6.22;;;12.60;91.40;;;;;;5053875;28;20089;-43
2023/09/04 03:27:47;;;;;;;7.25;6.53;;;12.60;91.30;;;;;;5033286;28;20375;-43
2023/09/04 03:30:14;;;;;;;8.57;6.45;;;12.60;91.30;;;;;;5050324;28;20426;-44
2023/09/04 03:32:40;;;;;;;8.27;7.47;;;12.70;91.30;;;;;;5064775;28;20619;-43
2023/09/04 03:35:06;;;;;;;6.97;6.30;;;12.60;91.10;;;;;;5059744;28;20028;-46
2023/09/04 03:37:36;;;;;;;7.85;7.05;;;12.70;91.20;;;;;;5053766;28;20032;-43
2023/09/04 03:40:37;;;;;;;8.40;7.43;;;12.60;91.30;;;;;;5071603;28;20562;-44
2023/09/04 03:43:04;;;;;;;8.82;7.65;;;12.70;91.30;;;;;;4970728;28;20104;-43
2023/09/04 03:45:35;;;;;;;8.18;7.38;;;12.70;91.20;;;;;;4944021;28;20047;-43
2023/09/04 03:48:02;;;;;;;7.13;6.40;;;12.60;91.30;;;;;;4954383;28;20050;-46
2023/09/04 03:50:28;;;;;;;8.15;6.78;;;12.70;91.30;;;;;;4954399;28;20053;-46
2023/09/04 03:52:56;;;;;;;9.00;8.10;;;12.70;91.40;;;;;;4950826;29;20122;-43
2023/09/04 03:55:22;;;;;;;9.30;8.40;;;12.70;91.40;;;;;;4958413;28;20516;-43
2023/09/04 03:57:51;;;;;;;8.48;7.68;;;12.80;91.50;;;;;;4962381;28;20042;-43
2023/09/04 04:00:18;;;;;;;9.25;7.30;;;12.80;91.50;;;;;;4957276;28;20038;-45
2023/09/04 04:02:51;;;;;;;8.55;7.70;;;12.80;91.40;;;;;;4964029;28;20035;-43
2023/09/04 04:05:20;;;;;;;9.70;8.48;;;12.80;91.30;;;;;;4968452;28;20464;-49
2023/09/04 04:07:47;;;;;;;9.27;8.38;;;12.70;91.10;;;;;;4943771;28;20361;-45
2023/09/04 04:10:14;;;;;;;9.63;8.57;;;12.70;91.30;;;;;;4952738;28;20496;-48
2023/09/04 04:12:43;;;;;;;10.05;8.77;;;12.70;91.40;;;;;;4933133;29;20050;-46
2023/09/04 04:15:11;;;;;;;9.43;8.43;;;12.70;91.40;;;;;;4953085;28;20042;-46
2023/09/04 04:17:38;;;;;;;9.98;8.98;;;12.70;91.20;;;;;;5013213;28;20123;-43
2023/09/04 04:20:12;;;;;;;10.38;7.97;;;12.70;91.20;;;;;;5050920;28;20472;-43
2023/09/04 04:22:42;;;;;;;9.30;8.23;;;12.70;91.20;;;;;;5085090;28;20338;-43
2023/09/04 04:25:08;;;;;;;;;;;12.60;91.20;;;;;;5068463;28;20532;-44
2023/09/04 04:27:34;;;;;;;12.15;8.52;;;12.60;91.10;;;;;;5052657;28;20321;-43
2023/09/04 04:30:02;;;;;;;9.45;8.45;;;12.50;91.00;;;;;;5068254;28;20658;-46
2023/09/04 04:32:28;;;;;;;9.20;7.72;;;12.50;91.10;;;;;;5051505;28;20445;-43
2023/09/04 04:34:57;;;;;;;11.02;9.80;;;12.50;91.20;;;;;;5068653;28;20042;-45
2023/09/04 04:37:24;;;;;;;9.80;8.80;;;12.50;91.00;;;;;;5053271;28;20032;-44
2023/09/04 04:39:52;;;;;;;10.10;8.35;;;12.50;91.10;;;;;;5062469;28;20040;-47
2023/09/04 04:42:19;;;;;;;10.35;9.35;;;12.40;91.00;;;;;;5069632;28;20534;-46
2023/09/04 04:44:46;;;;;;;10.45;8.85;;;12.40;90.80;;;;;;5065488;28;20394;-46
2023/09/04 04:47:12;;;;;;;9.77;8.77;;;12.40;90.90;;;;;;5069760;28;20509;-42
2023/09/04 04:49:39;;;;;;;9.48;8.48;;;12.40;90.90;;;;;;5048679;28;20132;-43
2023/09/04 04:52:09;;;;;;;11.38;9.43;;;12.40;90.90;;;;;;5043003;28;20025;-43
2023/09/04 04:54:37;;;;;;;9.90;8.90;;;12.40;90.90;;;;;;5045678;28;20039;-44
2023/09/04 04:57:03;;;;;;;11.95;9.80;;;12.40;90.90;;;;;;5046490;28;20033;-43
2023/09/04 04:59:30;;;;;;;12.55;11.25;;;12.40;91.10;;;;;;5042068;28;20104;-44
2023/09/04 05:02:00;;;;;;;13.77;12.38;;;12.50;91.30;;;;;;5044093;28;20093;-45
2023/09/04 05:04:26;;;;;;;;;;;12.40;91.20;;;;;;5049325;28;20025;-43
2023/09/04 05:06:54;;;;;;;12.80;11.48;;;12.50;91.40;;;;;;5046426;28;19924;-44
2023/09/04 05:09:21;;;;;;;14.30;12.80;;;12.50;91.40;;;;;;5059164;28;20117;-44
2023/09/04 05:11:51;;;;;;;13.98;12.57;;;12.50;91.50;;;;;;5028101;28;20319;-47
2023/09/04 05:14:17;;;;;;;14.63;13.18;;;12.60;91.50;;;;;;5048041;28;20025;-43
2023/09/04 05:16:43;;;;;;;15.73;13.30;;;12.60;91.40;;;;;;5042682;28;20036;-45
2023/09/04 05:19:09;;;;;;;14.25;12.85;;;12.60;91.40;;;;;;5050172;28;20405;-42
2023/09/04 05:21:36;;;;;;;15.95;14.25;;;12.60;91.50;;;;;;5033183;28;20123;-45
2023/09/04 05:24:05;;;;;;;16.15;14.55;;;12.60;91.60;;;;;;5066315;28;20055;-43
2023/09/04 05:26:32;;;;;;;15.73;14.18;;;12.60;91.70;;;;;;5053764;28;20040;-44
2023/09/04 05:29:01;;;;;;;20.23;14.77;;;12.70;91.90;;;;;;5043003;28;20496;-44
2023/09/04 05:31:28;;;;;;;16.20;14.47;;;12.70;91.90;;;;;;5062515;28;20036;-42
2023/09/04 05:33:56;;;;;;;15.50;13.90;;;12.70;92.10;;;;;;5064384;28;20317;-47
2023/09/04 05:36:27;;;;;;;16.20;14.23;;;12.80;92.20;;;;;;5049769;28;20531;-42
2023/09/04 05:38:54;;;;;;;;;;;12.80;92.30;;;;;;5031541;28;20090;-45
2023/09/04 05:41:21;;;;;;;17.48;15.68;;;12.90;92.40;;;;;;5048282;28;19938;-43
2023/09/04 05:43:50;;;;;;;17.52;15.65;;;12.90;92.50;;;;;;5049248;28;20029;-48
2023/09/04 05:46:17;;;;;;;16.85;15.02;;;12.90;92.70;;;;;;5022760;28;20037;-44
2023/09/04 05:48:42;;;;;;;18.35;16.52;;;12.90;92.70;;;;;;5029724;28;20037;-44
2023/09/04 05:51:10;;;;;;;18.33;15.77;;;12.90;92.70;;;;;;5030113;28;20018;-42
2023/09/04 05:53:36;;;;;;;15.50;13.88;;;13.00;92.80;;;;;;5016115;28;20021;-44
2023/09/04 05:56:10;;;;;;;18.10;15.15;;;13.00;92.90;;;;;;5027982;28;20367;-45
2023/09/04 05:58:46;;;;;;;17.77;15.70;;;13.10;92.90;;;;;;5047839;28;20469;-45
2023/09/04 06:01:23;;;;;;;17.05;15.25;;;13.20;92.90;;;;;;5035504;28;20072;-47
2023/09/04 06:03:49;;;;;;;16.75;15.05;;;13.20;92.90;;;;;;5032004;28;20087;-47
2023/09/04 06:06:15;;;;;;;15.88;13.95;;;13.30;92.90;;;;;;5050397;28;20032;-46
2023/09/04 06:08:43;;;;;;;16.30;14.18;;;13.30;92.90;;;;;;5049541;28;20025;-46
2023/09/04 06:11:12;;;;;;;17.05;14.90;;;13.40;92.90;;;;;;5045483;28;20033;-47
2023/09/04 06:13:38;;;;;;;17.08;15.27;;;13.40;93.00;;;;;;5063211;28;20090;-43
2023/09/04 06:16:05;;;;;;;15.55;13.90;;;13.40;93.00;;;;;;5021618;28;20024;-45
2023/09/04 06:18:32;;;;;;;15.93;14.32;;;13.50;93.10;;;;;;5062275;28;20056;-44
2023/09/04 06:20:57;;;;;;;19.58;17.58;;;13.60;93.10;;;;;;5072280;28;20037;-45
2023/09/04 06:23:25;;;;;;;16.92;14.52;;;13.60;93.10;;;;;;5037293;28;20480;-42
2023/09/04 06:25:52;;;;;;;16.50;14.30;;;13.70;93.20;;;;;;5035044;28;20064;-42
2023/09/04 06:28:20;;;;;;;19.50;15.95;;;13.80;93.20;;;;;;5045104;28;20491;-43
2023/09/04 06:30:47;;;;;;;18.42;16.50;;;13.90;93.20;;;;;;5063491;28;20028;-45
2023/09/04 06:33:14;;;;;;;18.80;16.77;;;13.90;93.20;;;;;;5037954;28;20060;-45
2023/09/04 06:35:41;;;;;;;19.60;17.50;;;14.00;93.30;;;;;;5032263;28;20168;-42
2023/09/04 06:38:10;;;;;;;20.25;18.17;;;14.10;93.30;;;;;;5047377;28;20096;-42
2023/09/04 06:40:43;;;;;;;18.10;16.23;;;14.20;93.20;;;;;;5045529;28;20033;-42
2023/09/04 06:43:09;;;;;;;19.20;17.13;;;14.20;93.20;;;;;;5031447;28;20052;-45
2023/09/04 06:45:39;;;;;;;17.15;15.40;;;14.40;93.20;;;;;;5048814;28;20077;-45
2023/09/04 06:48:08;;;;;;;18.35;16.25;;;14.40;93.20;;;;;;5055615;28;20032;-43
2023/09/04 06:50:35;;;;;;;;;;;14.40;93.20;;;;;;5043194;28;20405;-42
2023/09/04 06:53:03;;;;;;;18.17;16.27;;;14.50;93.20;;;;;;5046033;28;19909;-42
2023/09/04 06:55:31;;;;;;;16.42;14.73;;;14.60;93.20;;;;;;5021587;28;20029;-45
2023/09/04 06:57:56;;;;;;;15.80;13.82;;;14.70;93.20;;;;;;5030550;28;20106;-43
2023/09/04 07:00:22;;;;;;;16.80;15.20;;;14.70;93.20;;;;;;5044339;28;20526;-43
2023/09/04 07:02:49;;;;;;;16.80;15.10;;;14.90;93.30;;;;;;5043410;28;20029;-45
2023/09/04 07:05:15;;;;;;;17.63;15.80;;;14.90;93.30;;;;;;5030361;28;20048;-46
2023/09/04 07:07:41;;;;;;;16.15;14.45;;;15.00;93.40;;;;;;5023607;28;20020;-46
2023/09/04 07:10:08;;;;;;;20.90;17.25;;;15.10;93.40;;;;;;5047672;28;20332;-42
2023/09/04 07:12:35;;;;;;;16.23;14.63;;;15.20;93.40;;;;;;5031293;28;20082;-46
2023/09/04 07:15:02;;;;;;;18.23;14.50;;;15.20;93.40;;;;;;5047923;28;20029;-45
2023/09/04 07:17:27;;;;;;;15.60;14.00;;;15.40;93.40;;;;;;5047997;28;20037;-42
2023/09/04 07:19:54;;;;;;;14.52;13.02;;;15.40;93.30;;;;;;5029284;28;20087;-42
2023/09/04 07:22:24;;;;;;;13.73;12.38;;;15.40;93.20;;;;;;5043788;28;20044;-44
2023/09/04 07:24:52;;;;;;;15.63;14.02;;;15.50;93.10;;;;;;5045770;28;20029;-43
2023/09/04 07:27:19;;;;;;;14.82;13.32;;;15.60;93.00;;;;;;5032044;28;20029;-45
2023/09/04 07:29:50;;;;;;;14.95;13.45;;;15.70;93.00;;;;;;5052412;28;20025;-44
2023/09/04 07:32:17;;;;;;;16.08;14.50;;;15.80;92.90;;;;;;5059841;28;20059;-44
2023/09/04 07:34:42;;;;;;;14.63;12.90;;;15.90;92.40;;;;;;5031733;28;20025;-45
2023/09/04 07:37:09;;;;;;;14.00;12.25;;;16.10;92.20;;;;;;5026230;28;20031;-45
2023/09/04 07:39:36;;;;;;;12.82;10.48;;;16.20;91.10;;;;;;5052784;28;20020;-46
2023/09/04 07:42:02;;;;;;;12.57;11.27;;;16.40;90.90;;;;;;5038352;28;20061;-46
2023/09/04 07:44:29;;;;;;;11.95;10.57;;;16.80;90.80;;;;;;5029779;28;20056;-49
2023/09/04 07:46:54;;;;;;;9.43;8.38;;;17.10;90.30;;;;;;5046009;28;20024;-45
2023/09/04 07:49:21;;;;;;;11.10;10.00;;;17.40;89.90;;;;;;5018643;28;20201;-44
2023/09/04 07:51:53;;;;;;;10.40;9.40;;;17.70;88.60;;;;;;5004362;28;20030;-47
2023/09/04 07:54:21;;;;;;;10.60;8.07;;;18.00;88.10;;;;;;5027608;28;20049;-48
2023/09/04 07:56:48;;;;;;;11.70;7.97;;;18.40;86.80;;;;;;5024393;28;20123;-45
2023/09/04 07:59:13;;;;;;;8.70;6.50;;;18.80;86.60;;;;;;5030477;28;20060;-49
2023/09/04 08:01:43;;;;;;;8.07;7.22;;;18.90;84.10;;;;;;5011527;28;20133;-48
2023/09/04 08:04:10;;;;;;;6.95;5.80;;;19.30;83.10;;;;;;5013860;28;20056;-46
2023/09/04 08:06:38;;;;;;;8.48;7.18;;;19.40;81.70;;;;;;5008294;28;20512;-48
2023/09/04 08:09:05;;;;;;;6.50;5.50;;;19.80;81.60;;;;;;5020837;28;20110;-50
2023/09/04 08:11:36;;;;;;;7.13;4.80;;;19.90;79.10;;;;;;5009449;28;20025;-48
2023/09/04 08:14:03;;;;;;;6.13;4.85;;;20.20;78.40;;;;;;5025706;28;20034;-53
2023/09/04 08:16:30;;;;;;;7.05;4.60;;;20.40;78.80;;;;;;5000818;28;20033;-49
2023/09/04 08:18:56;;;;;;;6.20;4.63;;;20.40;77.40;;;;;;5028343;28;20030;-52
2023/09/04 08:21:26;;;;;;;6.60;3.88;;;20.70;76.90;;;;;;5033978;28;20101;-48
2023/09/04 08:23:53;;;;;;;5.80;3.53;;;20.90;78.00;;;;;;5027310;28;20029;-51
2023/09/04 08:26:19;;;;;;;5.07;3.67;;;21.10;76.40;;;;;;5035620;28;20032;-51
2023/09/04 08:28:46;;;;;;;5.75;3.58;;;21.10;75.50;;;;;;5015403;28;20112;-51
2023/09/04 08:31:12;;;;;;;5.78;3.42;;;21.20;75.50;;;;;;5031553;28;20655;-49
2023/09/04 08:33:38;;;;;;;5.93;3.92;;;21.50;76.10;;;;;;5032779;28;20033;-52
2023/09/04 08:36:05;;;;;;;6.68;4.13;;;21.70;74.70;;;;;;5027038;28;20056;-51
2023/09/04 08:38:32;;;;;;;5.72;4.07;;;21.70;72.60;;;;;;5008539;28;20120;-50
2023/09/04 08:41:07;;;;;;;5.43;3.88;;;21.60;72.60;;;;;;5030672;28;20030;-51
2023/09/04 08:43:42;;;;;;;4.35;3.30;;;21.70;71.90;;;;;;5000905;28;20029;-52
2023/09/04 08:46:10;;;;;;;5.30;3.05;;;21.90;71.70;;;;;;5029833;28;20046;-52
2023/09/04 08:48:40;;;;;;;5.18;3.63;;;22.00;73.50;;;;;;5026656;28;20032;-54
2023/09/04 08:51:08;;;;;;;6.18;3.75;;;22.20;70.70;;;;;;5040062;28;20122;-51
2023/09/04 08:53:37;;;;;;;4.82;3.95;;;22.20;71.40;;;;;;5045570;28;20026;-50
2023/09/04 08:56:07;;;;;;;;;;;22.20;69.20;;;;;;5044778;28;20402;-55
2023/09/04 08:58:34;;;;;;;5.85;3.53;;;22.10;70.40;;;;;;5046805;28;19917;-51
2023/09/04 09:01:00;;;;;;;6.35;3.75;;;22.30;70.60;;;;;;5037745;28;20033;-50
2023/09/04 09:03:27;;;;;;;4.20;2.97;;;22.50;70.50;;;;;;5031401;28;20040;-55
2023/09/04 09:05:55;;;;;;;7.32;4.63;;;22.70;69.10;;;;;;5015559;28;20111;-51
2023/09/04 09:08:24;;;;;;;4.32;2.63;;;22.80;67.30;;;;;;5036398;28;21153;-51
2023/09/04 09:10:51;;;;;;;7.80;3.05;;;22.90;70.20;;;;;;5044917;28;20430;-52
2023/09/04 09:13:20;;;;;;;4.20;3.35;;;22.90;69.60;;;;;;5049099;28;20085;-51
2023/09/04 09:15:50;;;;;;;5.03;3.05;;;23.10;70.10;;;;;;5052063;28;20080;-54
2023/09/04 09:18:36;;;;;;;4.93;3.17;;;23.10;68.20;;;;;;5037085;28;20033;-52
2023/09/04 09:21:01;;;;;;;5.57;3.88;;;23.20;67.20;;;;;;5047555;28;20108;-53
2023/09/04 09:23:29;;;;;;;4.07;2.80;;;23.20;66.10;;;;;;5042078;28;20119;-54
2023/09/04 09:25:58;;;;;;;4.93;3.10;;;23.20;66.70;;;;;;5035049;28;20040;-51
2023/09/04 09:28:23;;;;;;;6.75;2.90;;;23.00;65.00;;;;;;5048925;28;20029;-51
2023/09/04 09:30:50;;;;;;;5.05;3.45;;;23.10;67.10;;;;;;5047263;28;20031;-54
2023/09/04 09:33:20;;;;;;;3.78;2.47;;;23.20;67.10;;;;;;5031442;28;20025;-55
2023/09/04 09:35:54;;;;;;;5.28;2.50;;;23.20;66.90;;;;;;5048825;28;20060;-54
2023/09/04 09:38:21;;;;;;;3.35;2.22;;;23.20;65.90;;;;;;5039790;28;20044;-53
2023/09/04 09:40:50;;;;;;;5.28;2.80;;;23.40;68.00;;;;;;5039310;28;20037;-56
2023/09/04 09:43:16;;;;;;;5.10;2.40;;;23.50;65.90;;;;;;5030356;28;20064;-55
2023/09/04 09:45:49;;;;;;;5.35;3.20;;;23.60;64.20;;;;;;5044287;28;20412;-53
2023/09/04 09:48:23;;;;;;;6.68;2.35;;;23.70;65.00;;;;;;5032280;28;20089;-56
2023/09/04 09:50:51;;;;;;;6.75;2.60;;;23.80;66.20;;;;;;5027777;28;20029;-53
2023/09/04 09:53:18;;;;;;;3.50;2.47;;;23.90;64.90;;;;;;5041113;28;20033;-54
2023/09/04 09:55:48;;;;;;;3.75;2.55;;;24.00;64.10;;;;;;5040308;28;20434;-53
2023/09/04 09:58:16;;;;;;;4.40;2.40;;;23.90;63.30;;;;;;5048618;28;20040;-52
2023/09/04 10:00:44;;;;;;;4.55;2.78;;;23.80;64.40;;;;;;5039331;28;20033;-54
2023/09/04 10:03:12;;;;;;;7.35;2.75;;;23.90;65.50;;;;;;5028473;28;20036;-52
2023/09/04 10:05:40;;;;;;;4.20;2.38;;;23.90;63.70;;;;;;5039615;28;20030;-51
2023/09/04 10:08:08;;;;;;;4.15;2.45;;;23.90;63.90;;;;;;5045885;28;20025;-52
2023/09/04 10:10:39;;;;;;;6.82;2.58;;;23.90;64.70;;;;;;5021486;28;20431;-55
2023/09/04 10:13:26;;;;;;;4.60;2.03;;;23.90;65.00;;;;;;5049344;28;20021;-55
2023/09/04 10:16:00;;;;;;;6.55;2.70;;;23.90;64.20;;;;;;5031354;28;20021;-53
2023/09/04 10:18:29;;;;;;;4.63;2.33;;;23.90;63.80;;;;;;5007360;28;20103;-51
2023/09/04 10:20:57;;;;;;;;;;;23.80;61.20;;;;;;5027214;28;20025;-56
2023/09/04 10:23:34;;;;;;;5.13;1.85;;;23.80;61.20;;;;;;5044301;28;19913;-54
2023/09/04 10:26:11;;;;;;;3.55;2.45;;;23.90;64.60;;;;;;5041025;28;20041;-54
2023/09/04 10:28:40;;;;;;;2.90;2.08;;;23.90;61.70;;;;;;5050362;28;20021;-54
2023/09/04 10:31:10;;;;;;;4.43;2.50;;;23.90;64.40;;;;;;5047173;28;20390;-53
2023/09/04 10:33:40;;;;;;;2.85;2.10;;;24.10;65.30;;;;;;5035118;28;20017;-55
2023/09/04 10:36:08;;;;;;;7.50;2.60;;;24.40;63.20;;;;;;5024290;28;20036;-54
2023/09/04 10:38:36;;;;;;;3.72;2.30;;;24.30;61.60;;;;;;5046887;28;20155;-56
2023/09/04 10:41:05;;;;;;;3.05;1.73;;;24.30;62.80;;;;;;5041452;28;20099;-54
2023/09/04 10:43:44;;;;;;;3.80;2.20;;;24.10;62.50;;;;;;5043516;28;20354;-49
2023/09/04 10:46:13;;;;;;;6.18;2.50;;;23.90;61.40;;;;;;5043490;28;20069;-56
2023/09/04 10:48:47;;;;;;;3.63;2.42;;;23.90;61.30;;;;;;5045671;28;20067;-54
2023/09/04 10:51:51;;;;;;;4.90;2.40;;;23.90;61.60;;;;;;5020554;28;20055;-53
2023/09/04 10:54:26;;;;;;;4.20;2.30;;;23.80;63.60;;;;;;5019784;28;20026;-52
2023/09/04 10:56:58;;;;;;;5.72;2.47;;;23.90;66.90;;;;;;5013769;28;20120;-57
2023/09/04 10:59:26;;;;;;;4.07;2.25;;;23.80;63.60;;;;;;5023424;28;20030;-56
2023/09/04 11:01:57;;;;;;;6.63;2.80;;;23.90;65.10;;;;;;5019467;28;20863;-54
2023/09/04 11:04:43;;;;;;;3.78;2.72;;;23.90;64.60;;;;;;5028126;28;20022;-54
2023/09/04 11:07:29;;;;;;;3.33;2.03;;;23.90;64.80;;;;;;5006978;28;20116;-52
2023/09/04 11:10:06;;;;;;;4.47;2.25;;;24.00;64.50;;;;;;5015497;28;20034;-56
2023/09/04 11:12:42;;;;;;;4.45;2.33;;;24.00;63.90;;;;;;5025571;28;20025;-55
2023/09/04 11:15:22;;;;;;;3.20;2.40;;;23.90;62.30;;;;;;5008476;28;20465;-55
2023/09/04 11:17:51;;;;;;;4.88;2.88;;;24.00;65.00;;;;;;5014597;28;20030;-57
2023/09/04 11:20:26;;;;;;;5.72;2.60;;;24.00;66.30;;;;;;5026567;28;20037;-57
2023/09/04 11:22:54;;;;;;;5.32;2.47;;;24.10;66.60;;;;;;5002080;28;20060;-57
2023/09/04 11:25:22;;;;;;;5.15;2.42;;;24.10;65.00;;;;;;5002956;28;20037;-56
2023/09/04 11:27:49;;;;;;;4.10;2.20;;;24.00;62.60;;;;;;5011162;28;20021;-54
2023/09/04 11:30:17;;;;;;;5.82;1.92;;;24.10;63.50;;;;;;5016751;28;20035;-57
2023/09/04 11:32:44;;;;;;;4.40;2.35;;;24.20;65.20;;;;;;5023747;28;20030;-57
2023/09/04 11:35:13;;;;;;;4.63;2.30;;;24.10;63.00;;;;;;5016932;28;20041;-56
2023/09/04 11:37:39;;;;;;;4.55;2.22;;;24.10;64.70;;;;;;5007552;28;20037;-57
2023/09/04 11:40:08;;;;;;;4.80;2.25;;;24.10;64.70;;;;;;5005431;28;20030;-55
2023/09/04 11:42:36;;;;;;;3.08;2.10;;;24.20;65.50;;;;;;5020892;28;20670;-57
2023/09/04 11:45:04;;;;;;;3.55;1.92;;;24.10;64.00;;;;;;5017416;28;20069;-57
2023/09/04 11:47:30;;;;;;;3.03;2.00;;;24.10;62.60;;;;;;5024869;28;20025;-57
2023/09/04 11:49:57;;;;;;;4.75;1.95;;;23.90;62.90;;;;;;5043247;28;20465;-57
2023/09/04 11:52:26;;;;;;;3.45;1.67;;;23.80;64.00;;;;;;5039127;28;20040;-55
2023/09/04 11:54:53;;;;;;;3.47;1.90;;;23.70;62.90;;;;;;5048696;28;20097;-56
2023/09/04 11:57:26;;;;;;;4.15;1.80;;;23.80;63.30;;;;;;5051078;28;20527;-56
2023/09/04 11:59:53;;;;;;;3.33;1.63;;;23.90;65.90;;;;;;5039751;28;20028;-55
2023/09/04 12:02:19;;;;;;;3.90;1.55;;;23.90;65.20;;;;;;5049802;28;20033;-57
2023/09/04 12:04:46;;;;;;;3.85;2.17;;;23.80;63.20;;;;;;5030906;28;20033;-57
2023/09/04 12:07:18;;;;;;;2.88;1.60;;;23.90;65.00;;;;;;5047327;28;20067;-55
2023/09/04 12:09:49;;;;;;;4.53;1.88;;;24.10;65.50;;;;;;5039834;28;20117;-54
2023/09/04 12:12:17;;;;;;;3.35;1.58;;;24.00;64.20;;;;;;5043441;28;20025;-55
2023/09/04 12:14:45;;;;;;;3.25;2.03;;;24.20;66.30;;;;;;5044707;28;20095;-57
2023/09/04 12:17:12;;;;;;;2.35;1.40;;;24.30;64.10;;;;;;5020488;28;20030;-55
2023/09/04 12:19:39;;;;;;;2.80;1.35;;;24.20;62.40;;;;;;5047208;28;20055;-57
2023/09/04 12:22:15;;;;;;;3.65;1.60;;;24.20;62.60;;;;;;5049380;28;20036;-57
2023/09/04 12:25:10;;;;;;;3.33;1.20;;;24.20;61.40;;;;;;5049857;28;20082;-57
2023/09/04 12:27:41;;;;;;;3.33;1.73;;;24.10;61.90;;;;;;5045364;28;20016;-58
2023/09/04 12:30:11;;;;;;;2.50;1.13;;;23.90;60.90;;;;;;5042714;28;20075;-55
2023/09/04 12:32:38;;;;;;;3.13;1.38;;;23.90;62.70;;;;;;5042093;28;20025;-54
2023/09/04 12:35:06;;;;;;;3.78;1.50;;;23.70;60.00;;;;;;5044841;28;20029;-55
2023/09/04 12:37:34;;;;;;;3.42;1.60;;;23.60;60.30;;;;;;5046546;28;20028;-54
2023/09/04 12:40:00;;;;;;;3.58;1.95;;;23.50;62.80;;;;;;5019677;28;20033;-55
2023/09/04 12:42:27;;;;;;;2.67;1.73;;;23.50;64.40;;;;;;5025753;28;20466;-53
2023/09/04 12:44:54;;;;;;;2.60;1.70;;;23.50;62.40;;;;;;5045627;28;20032;-57
2023/09/04 12:47:21;;;;;;;3.38;1.85;;;23.50;62.60;;;;;;5047899;28;20040;-56
2023/09/04 12:49:50;;;;;;;2.83;1.67;;;23.50;63.30;;;;;;5027190;28;20032;-53
2023/09/04 12:52:17;;;;;;;;;;;23.40;61.40;;;;;;5022173;28;20029;-56
2023/09/04 12:54:43;;;;;;;4.38;2.25;;;23.40;61.40;;;;;;5025316;28;20406;-52